Forreston, Illinois
Current Conditions -  °F | °C
As of 1:35 PM on Sunday 21 Dec 2014 (Local Time) from KFEP Reporting Station
Overcast Overcast  
Wind Chill: 28°   Ceiling: 2400
Heat Index: 36°   Visibility: 7mi
Dew Point: 32°   Wind: 13mph
Humidity: 86%   Direction: 160°SSE
Pressure: 30.03"   Gusts: NA
Location:  42.13°N, 89.58°W
Report Text: KFEP 211935Z AUTO 16011KT 7SM OVC024 02/00 A3003 RMK AO2 T00220000
Loading
Personal Weather Stations






























Interactive Weather Map New forecast layout! Learn more

10-Day Weather Forecast

Advertisements
Track Severe Weather on mobile